sensor_id;sensor_type;location;lat;lon;timestamp;P1;durP1;ratioP1;P2;durP2;ratioP2
36995;SDS011;22905;50.340;10.776;2023-12-28T00:03:57;26.08;;;14.20;;
36995;SDS011;22905;50.340;10.776;2023-12-28T00:08:57;24.20;;;13.20;;
36995;SDS011;22905;50.340;10.776;2023-12-28T00:13:57;37.60;;;15.90;;
36995;SDS011;22905;50.340;10.776;2023-12-28T00:18:57;24.02;;;13.35;;
36995;SDS011;22905;50.340;10.776;2023-12-28T00:23:58;24.50;;;13.13;;
36995;SDS011;22905;50.340;10.776;2023-12-28T00:28:58;23.48;;;12.70;;
36995;SDS011;22905;50.340;10.776;2023-12-28T00:33:58;34.30;;;15.27;;
36995;SDS011;22905;50.340;10.776;2023-12-28T00:38:59;36.70;;;18.13;;
36995;SDS011;22905;50.340;10.776;2023-12-28T00:43:59;30.77;;;14.87;;
36995;SDS011;22905;50.340;10.776;2023-12-28T00:49:00;27.90;;;13.65;;
36995;SDS011;22905;50.340;10.776;2023-12-28T00:54:00;24.30;;;12.85;;
36995;SDS011;22905;50.340;10.776;2023-12-28T00:59:01;39.45;;;16.30;;
36995;SDS011;22905;50.340;10.776;2023-12-28T01:04:02;42.97;;;18.13;;
36995;SDS011;22905;50.340;10.776;2023-12-28T01:09:03;30.92;;;15.38;;
36995;SDS011;22905;50.340;10.776;2023-12-28T01:14:03;27.83;;;12.27;;
36995;SDS011;22905;50.340;10.776;2023-12-28T01:19:03;29.47;;;12.73;;
36995;SDS011;22905;50.340;10.776;2023-12-28T01:24:04;28.05;;;13.93;;
36995;SDS011;22905;50.340;10.776;2023-12-28T01:29:04;26.20;;;12.10;;
36995;SDS011;22905;50.340;10.776;2023-12-28T01:34:04;19.52;;;12.00;;
36995;SDS011;22905;50.340;10.776;2023-12-28T01:39:05;20.92;;;10.63;;
36995;SDS011;22905;50.340;10.776;2023-12-28T01:44:05;18.50;;;10.50;;
36995;SDS011;22905;50.340;10.776;2023-12-28T01:49:05;21.77;;;11.48;;
36995;SDS011;22905;50.340;10.776;2023-12-28T01:54:06;14.60;;;9.02;;
36995;SDS011;22905;50.340;10.776;2023-12-28T01:59:06;16.23;;;9.87;;
36995;SDS011;22905;50.340;10.776;2023-12-28T02:04:07;15.82;;;9.25;;
36995;SDS011;22905;50.340;10.776;2023-12-28T02:09:07;31.75;;;13.20;;
36995;SDS011;22905;50.340;10.776;2023-12-28T02:14:07;44.45;;;19.40;;
36995;SDS011;22905;50.340;10.776;2023-12-28T02:19:17;47.90;;;20.50;;
36995;SDS011;22905;50.340;10.776;2023-12-28T02:24:20;58.72;;;24.50;;
36995;SDS011;22905;50.340;10.776;2023-12-28T02:29:20;52.33;;;20.67;;
36995;SDS011;22905;50.340;10.776;2023-12-28T02:34:22;45.13;;;19.67;;
36995;SDS011;22905;50.340;10.776;2023-12-28T02:39:28;31.77;;;15.55;;
36995;SDS011;22905;50.340;10.776;2023-12-28T02:44:29;28.95;;;14.73;;
36995;SDS011;22905;50.340;10.776;2023-12-28T02:49:29;39.47;;;17.83;;
36995;SDS011;22905;50.340;10.776;2023-12-28T02:54:30;33.92;;;14.98;;
36995;SDS011;22905;50.340;10.776;2023-12-28T02:59:30;21.70;;;11.98;;
36995;SDS011;22905;50.340;10.776;2023-12-28T03:04:30;19.67;;;9.80;;
36995;SDS011;22905;50.340;10.776;2023-12-28T03:09:31;17.23;;;9.63;;
36995;SDS011;22905;50.340;10.776;2023-12-28T03:14:31;13.47;;;7.77;;
36995;SDS011;22905;50.340;10.776;2023-12-28T03:19:32;14.05;;;7.93;;
36995;SDS011;22905;50.340;10.776;2023-12-28T03:24:32;12.40;;;7.28;;
36995;SDS011;22905;50.340;10.776;2023-12-28T03:29:33;12.30;;;7.65;;
36995;SDS011;22905;50.340;10.776;2023-12-28T03:34:33;16.05;;;7.50;;
36995;SDS011;22905;50.340;10.776;2023-12-28T03:39:34;13.63;;;8.23;;
36995;SDS011;22905;50.340;10.776;2023-12-28T03:44:34;15.50;;;7.87;;
36995;SDS011;22905;50.340;10.776;2023-12-28T03:49:34;15.18;;;8.23;;
36995;SDS011;22905;50.340;10.776;2023-12-28T03:54:35;25.07;;;12.93;;
36995;SDS011;22905;50.340;10.776;2023-12-28T03:59:35;37.38;;;18.50;;
36995;SDS011;22905;50.340;10.776;2023-12-28T04:04:35;32.75;;;16.38;;
36995;SDS011;22905;50.340;10.776;2023-12-28T04:09:36;28.42;;;14.23;;
36995;SDS011;22905;50.340;10.776;2023-12-28T04:14:36;24.05;;;12.77;;
36995;SDS011;22905;50.340;10.776;2023-12-28T04:19:36;22.23;;;11.48;;
36995;SDS011;22905;50.340;10.776;2023-12-28T04:24:37;15.75;;;10.15;;
36995;SDS011;22905;50.340;10.776;2023-12-28T04:29:37;16.05;;;9.02;;
36995;SDS011;22905;50.340;10.776;2023-12-28T04:34:37;15.48;;;9.40;;
36995;SDS011;22905;50.340;10.776;2023-12-28T04:39:38;13.93;;;9.53;;
36995;SDS011;22905;50.340;10.776;2023-12-28T04:44:38;18.20;;;9.35;;
36995;SDS011;22905;50.340;10.776;2023-12-28T04:49:39;19.55;;;8.18;;
36995;SDS011;22905;50.340;10.776;2023-12-28T04:54:42;18.30;;;9.95;;
36995;SDS011;22905;50.340;10.776;2023-12-28T04:59:43;22.10;;;10.00;;
36995;SDS011;22905;50.340;10.776;2023-12-28T05:04:43;16.88;;;9.25;;
36995;SDS011;22905;50.340;10.776;2023-12-28T05:09:43;18.63;;;9.60;;
36995;SDS011;22905;50.340;10.776;2023-12-28T05:14:44;27.90;;;14.48;;
36995;SDS011;22905;50.340;10.776;2023-12-28T05:19:44;29.13;;;12.93;;
36995;SDS011;22905;50.340;10.776;2023-12-28T05:24:44;29.27;;;13.45;;
36995;SDS011;22905;50.340;10.776;2023-12-28T05:29:45;29.13;;;13.98;;
36995;SDS011;22905;50.340;10.776;2023-12-28T05:34:45;24.10;;;12.70;;
36995;SDS011;22905;50.340;10.776;2023-12-28T05:39:45;16.45;;;9.32;;
36995;SDS011;22905;50.340;10.776;2023-12-28T05:44:46;13.90;;;7.80;;
36995;SDS011;22905;50.340;10.776;2023-12-28T05:49:46;15.93;;;7.13;;
36995;SDS011;22905;50.340;10.776;2023-12-28T05:54:46;10.32;;;5.50;;
36995;SDS011;22905;50.340;10.776;2023-12-28T05:59:48;8.85;;;5.15;;
36995;SDS011;22905;50.340;10.776;2023-12-28T06:04:48;7.18;;;5.03;;
36995;SDS011;22905;50.340;10.776;2023-12-28T06:09:48;11.18;;;5.43;;
36995;SDS011;22905;50.340;10.776;2023-12-28T06:14:49;11.90;;;7.80;;
36995;SDS011;22905;50.340;10.776;2023-12-28T06:19:50;13.50;;;6.25;;
36995;SDS011;22905;50.340;10.776;2023-12-28T06:24:50;14.45;;;7.40;;
36995;SDS011;22905;50.340;10.776;2023-12-28T06:29:51;13.95;;;7.97;;
36995;SDS011;22905;50.340;10.776;2023-12-28T06:34:51;13.88;;;9.00;;
36995;SDS011;22905;50.340;10.776;2023-12-28T06:39:51;34.20;;;23.80;;
36995;SDS011;22905;50.340;10.776;2023-12-28T06:44:51;23.42;;;13.98;;
36995;SDS011;22905;50.340;10.776;2023-12-28T06:49:52;43.38;;;20.77;;
36995;SDS011;22905;50.340;10.776;2023-12-28T06:54:52;45.45;;;20.20;;
36995;SDS011;22905;50.340;10.776;2023-12-28T06:59:53;40.25;;;22.90;;
36995;SDS011;22905;50.340;10.776;2023-12-28T07:04:54;31.25;;;18.05;;
36995;SDS011;22905;50.340;10.776;2023-12-28T07:09:54;20.85;;;9.95;;
36995;SDS011;22905;50.340;10.776;2023-12-28T07:14:55;15.45;;;8.68;;
36995;SDS011;22905;50.340;10.776;2023-12-28T07:19:55;23.20;;;8.57;;
36995;SDS011;22905;50.340;10.776;2023-12-28T07:24:55;14.00;;;7.50;;
36995;SDS011;22905;50.340;10.776;2023-12-28T07:29:56;14.05;;;7.38;;
36995;SDS011;22905;50.340;10.776;2023-12-28T07:34:56;14.85;;;7.85;;
36995;SDS011;22905;50.340;10.776;2023-12-28T07:39:56;9.05;;;5.18;;
36995;SDS011;22905;50.340;10.776;2023-12-28T07:44:57;12.25;;;6.20;;
36995;SDS011;22905;50.340;10.776;2023-12-28T07:49:57;13.07;;;7.25;;
36995;SDS011;22905;50.340;10.776;2023-12-28T07:54:58;15.82;;;9.32;;
36995;SDS011;22905;50.340;10.776;2023-12-28T07:59:59;16.92;;;9.50;;
36995;SDS011;22905;50.340;10.776;2023-12-28T08:04:59;14.45;;;8.82;;
36995;SDS011;22905;50.340;10.776;2023-12-28T08:10:00;15.17;;;9.70;;
36995;SDS011;22905;50.340;10.776;2023-12-28T08:15:00;21.38;;;9.57;;
36995;SDS011;22905;50.340;10.776;2023-12-28T08:20:00;14.30;;;8.73;;
36995;SDS011;22905;50.340;10.776;2023-12-28T08:25:01;15.95;;;8.43;;
36995;SDS011;22905;50.340;10.776;2023-12-28T08:30:01;13.77;;;7.80;;
36995;SDS011;22905;50.340;10.776;2023-12-28T08:35:03;11.10;;;6.80;;
36995;SDS011;22905;50.340;10.776;2023-12-28T08:40:03;9.00;;;5.55;;
36995;SDS011;22905;50.340;10.776;2023-12-28T08:45:04;11.90;;;5.07;;
36995;SDS011;22905;50.340;10.776;2023-12-28T08:50:05;7.28;;;4.65;;
36995;SDS011;22905;50.340;10.776;2023-12-28T08:55:06;6.90;;;4.50;;
36995;SDS011;22905;50.340;10.776;2023-12-28T09:00:06;6.53;;;3.78;;
36995;SDS011;22905;50.340;10.776;2023-12-28T09:05:08;5.65;;;3.53;;
36995;SDS011;22905;50.340;10.776;2023-12-28T09:10:12;11.10;;;4.97;;
36995;SDS011;22905;50.340;10.776;2023-12-28T09:15:13;4.75;;;3.47;;
36995;SDS011;22905;50.340;10.776;2023-12-28T09:20:14;5.53;;;4.03;;
36995;SDS011;22905;50.340;10.776;2023-12-28T09:25:14;7.32;;;4.50;;
36995;SDS011;22905;50.340;10.776;2023-12-28T09:30:14;5.78;;;3.55;;
36995;SDS011;22905;50.340;10.776;2023-12-28T09:35:15;5.38;;;3.55;;
36995;SDS011;22905;50.340;10.776;2023-12-28T09:40:15;6.93;;;3.30;;
36995;SDS011;22905;50.340;10.776;2023-12-28T09:45:15;4.55;;;2.78;;
36995;SDS011;22905;50.340;10.776;2023-12-28T09:50:16;6.30;;;3.85;;
36995;SDS011;22905;50.340;10.776;2023-12-28T09:55:17;5.90;;;2.78;;
36995;SDS011;22905;50.340;10.776;2023-12-28T10:00:18;4.35;;;3.20;;
36995;SDS011;22905;50.340;10.776;2023-12-28T10:05:18;5.47;;;3.55;;
36995;SDS011;22905;50.340;10.776;2023-12-28T10:10:19;6.47;;;3.97;;
36995;SDS011;22905;50.340;10.776;2023-12-28T10:20:25;31.33;;;15.10;;
36995;SDS011;22905;50.340;10.776;2023-12-28T10:25:27;59.40;;;31.42;;
36995;SDS011;22905;50.340;10.776;2023-12-28T10:30:28;14.48;;;7.88;;
36995;SDS011;22905;50.340;10.776;2023-12-28T10:35:30;7.07;;;3.20;;
36995;SDS011;22905;50.340;10.776;2023-12-28T10:40:30;3.22;;;2.30;;
36995;SDS011;22905;50.340;10.776;2023-12-28T10:45:35;6.40;;;3.45;;
36995;SDS011;22905;50.340;10.776;2023-12-28T10:50:41;4.40;;;2.90;;
36995;SDS011;22905;50.340;10.776;2023-12-28T10:55:46;4.97;;;2.45;;
36995;SDS011;22905;50.340;10.776;2023-12-28T11:01:11;2.85;;;2.22;;
36995;SDS011;22905;50.340;10.776;2023-12-28T11:06:12;2.80;;;2.20;;
36995;SDS011;22905;50.340;10.776;2023-12-28T11:11:13;5.25;;;2.47;;
36995;SDS011;22905;50.340;10.776;2023-12-28T11:16:14;3.55;;;2.28;;
36995;SDS011;22905;50.340;10.776;2023-12-28T11:21:15;5.50;;;2.60;;
36995;SDS011;22905;50.340;10.776;2023-12-28T11:26:20;3.50;;;2.33;;
36995;SDS011;22905;50.340;10.776;2023-12-28T11:31:21;5.70;;;2.50;;
36995;SDS011;22905;50.340;10.776;2023-12-28T11:36:25;4.53;;;2.23;;
36995;SDS011;22905;50.340;10.776;2023-12-28T11:41:33;44.00;;;22.70;;
36995;SDS011;22905;50.340;10.776;2023-12-28T11:46:34;6.38;;;3.17;;
36995;SDS011;22905;50.340;10.776;2023-12-28T11:56:37;3.50;;;2.40;;
36995;SDS011;22905;50.340;10.776;2023-12-28T12:01:38;5.67;;;2.20;;
36995;SDS011;22905;50.340;10.776;2023-12-28T12:06:38;2.63;;;1.95;;
36995;SDS011;22905;50.340;10.776;2023-12-28T12:11:39;2.22;;;2.03;;
36995;SDS011;22905;50.340;10.776;2023-12-28T12:16:39;3.73;;;2.40;;
36995;SDS011;22905;50.340;10.776;2023-12-28T12:21:39;6.10;;;3.10;;
36995;SDS011;22905;50.340;10.776;2023-12-28T12:26:40;7.82;;;3.60;;
36995;SDS011;22905;50.340;10.776;2023-12-28T12:31:40;4.72;;;3.15;;
36995;SDS011;22905;50.340;10.776;2023-12-28T12:36:42;3.67;;;3.20;;
36995;SDS011;22905;50.340;10.776;2023-12-28T12:41:42;3.70;;;2.73;;
36995;SDS011;22905;50.340;10.776;2023-12-28T12:46:46;5.07;;;2.13;;
36995;SDS011;22905;50.340;10.776;2023-12-28T12:51:46;4.05;;;2.80;;
36995;SDS011;22905;50.340;10.776;2023-12-28T12:56:47;4.00;;;2.00;;
36995;SDS011;22905;50.340;10.776;2023-12-28T13:01:47;4.07;;;2.83;;
36995;SDS011;22905;50.340;10.776;2023-12-28T13:06:48;7.18;;;3.80;;
36995;SDS011;22905;50.340;10.776;2023-12-28T13:11:49;4.78;;;2.20;;
36995;SDS011;22905;50.340;10.776;2023-12-28T13:16:51;3.67;;;2.47;;
36995;SDS011;22905;50.340;10.776;2023-12-28T13:21:54;3.65;;;2.60;;
36995;SDS011;22905;50.340;10.776;2023-12-28T13:26:55;5.68;;;3.58;;
36995;SDS011;22905;50.340;10.776;2023-12-28T13:31:55;25.40;;;7.45;;
36995;SDS011;22905;50.340;10.776;2023-12-28T13:36:55;6.22;;;4.22;;
36995;SDS011;22905;50.340;10.776;2023-12-28T13:41:56;8.13;;;4.05;;
36995;SDS011;22905;50.340;10.776;2023-12-28T13:46:56;6.83;;;4.30;;
36995;SDS011;22905;50.340;10.776;2023-12-28T13:51:56;7.47;;;3.97;;
36995;SDS011;22905;50.340;10.776;2023-12-28T13:56:56;7.23;;;3.20;;
36995;SDS011;22905;50.340;10.776;2023-12-28T14:01:58;6.43;;;2.70;;
36995;SDS011;22905;50.340;10.776;2023-12-28T14:06:59;6.90;;;2.95;;
36995;SDS011;22905;50.340;10.776;2023-12-28T14:11:59;14.82;;;7.97;;
36995;SDS011;22905;50.340;10.776;2023-12-28T14:16:59;6.10;;;3.08;;
36995;SDS011;22905;50.340;10.776;2023-12-28T14:22:00;5.43;;;3.42;;
36995;SDS011;22905;50.340;10.776;2023-12-28T14:27:00;3.83;;;2.78;;
36995;SDS011;22905;50.340;10.776;2023-12-28T14:32:01;4.35;;;2.67;;
36995;SDS011;22905;50.340;10.776;2023-12-28T14:37:01;8.98;;;3.53;;
36995;SDS011;22905;50.340;10.776;2023-12-28T14:42:03;5.75;;;2.58;;
36995;SDS011;22905;50.340;10.776;2023-12-28T14:47:04;5.68;;;3.30;;
36995;SDS011;22905;50.340;10.776;2023-12-28T14:52:04;7.60;;;3.55;;
36995;SDS011;22905;50.340;10.776;2023-12-28T14:57:05;17.85;;;6.03;;
36995;SDS011;22905;50.340;10.776;2023-12-28T15:02:05;37.42;;;12.70;;
36995;SDS011;22905;50.340;10.776;2023-12-28T15:07:05;30.40;;;12.00;;
36995;SDS011;22905;50.340;10.776;2023-12-28T15:12:06;31.77;;;12.10;;
36995;SDS011;22905;50.340;10.776;2023-12-28T15:17:07;20.90;;;10.00;;
36995;SDS011;22905;50.340;10.776;2023-12-28T15:22:08;25.13;;;11.48;;
36995;SDS011;22905;50.340;10.776;2023-12-28T15:27:08;21.40;;;8.48;;
36995;SDS011;22905;50.340;10.776;2023-12-28T15:32:08;30.30;;;12.23;;
36995;SDS011;22905;50.340;10.776;2023-12-28T15:37:09;33.70;;;15.60;;
36995;SDS011;22905;50.340;10.776;2023-12-28T15:42:09;10.07;;;6.65;;
36995;SDS011;22905;50.340;10.776;2023-12-28T15:47:09;13.73;;;6.90;;
36995;SDS011;22905;50.340;10.776;2023-12-28T15:52:09;10.23;;;5.22;;
36995;SDS011;22905;50.340;10.776;2023-12-28T15:57:10;13.18;;;5.38;;
36995;SDS011;22905;50.340;10.776;2023-12-28T16:02:11;8.50;;;5.20;;
36995;SDS011;22905;50.340;10.776;2023-12-28T16:07:11;10.83;;;6.30;;
36995;SDS011;22905;50.340;10.776;2023-12-28T16:12:11;12.48;;;6.63;;
36995;SDS011;22905;50.340;10.776;2023-12-28T16:17:12;11.33;;;5.80;;
36995;SDS011;22905;50.340;10.776;2023-12-28T16:22:12;19.05;;;8.00;;
36995;SDS011;22905;50.340;10.776;2023-12-28T16:27:13;11.50;;;6.18;;
36995;SDS011;22905;50.340;10.776;2023-12-28T16:32:13;10.00;;;5.17;;
36995;SDS011;22905;50.340;10.776;2023-12-28T16:37:14;14.45;;;8.25;;
36995;SDS011;22905;50.340;10.776;2023-12-28T16:42:14;12.10;;;6.90;;
36995;SDS011;22905;50.340;10.776;2023-12-28T16:47:15;18.00;;;10.77;;
36995;SDS011;22905;50.340;10.776;2023-12-28T16:52:15;15.40;;;7.90;;
36995;SDS011;22905;50.340;10.776;2023-12-28T16:57:15;12.10;;;6.10;;
36995;SDS011;22905;50.340;10.776;2023-12-28T17:02:15;18.00;;;8.35;;
36995;SDS011;22905;50.340;10.776;2023-12-28T17:07:16;25.20;;;14.77;;
36995;SDS011;22905;50.340;10.776;2023-12-28T17:12:18;16.07;;;9.90;;
36995;SDS011;22905;50.340;10.776;2023-12-28T17:17:27;13.40;;;8.40;;
36995;SDS011;22905;50.340;10.776;2023-12-28T17:22:27;12.97;;;9.57;;
36995;SDS011;22905;50.340;10.776;2023-12-28T17:27:33;11.45;;;7.40;;
36995;SDS011;22905;50.340;10.776;2023-12-28T17:32:34;15.15;;;8.00;;
36995;SDS011;22905;50.340;10.776;2023-12-28T17:37:37;10.60;;;7.90;;
36995;SDS011;22905;50.340;10.776;2023-12-28T17:42:38;12.68;;;7.28;;
36995;SDS011;22905;50.340;10.776;2023-12-28T17:47:54;10.57;;;5.73;;
36995;SDS011;22905;50.340;10.776;2023-12-28T17:53:00;11.10;;;5.50;;
36995;SDS011;22905;50.340;10.776;2023-12-28T17:58:01;8.30;;;5.75;;
36995;SDS011;22905;50.340;10.776;2023-12-28T18:03:01;8.50;;;4.03;;
36995;SDS011;22905;50.340;10.776;2023-12-28T18:08:02;11.02;;;5.60;;
36995;SDS011;22905;50.340;10.776;2023-12-28T18:13:02;8.93;;;5.28;;
36995;SDS011;22905;50.340;10.776;2023-12-28T18:18:03;6.38;;;3.65;;
36995;SDS011;22905;50.340;10.776;2023-12-28T18:23:03;7.13;;;3.72;;
36995;SDS011;22905;50.340;10.776;2023-12-28T18:28:04;9.45;;;5.45;;
36995;SDS011;22905;50.340;10.776;2023-12-28T18:33:04;13.50;;;5.18;;
36995;SDS011;22905;50.340;10.776;2023-12-28T18:38:04;10.17;;;4.77;;
36995;SDS011;22905;50.340;10.776;2023-12-28T18:43:05;11.95;;;4.80;;
36995;SDS011;22905;50.340;10.776;2023-12-28T18:48:05;4.75;;;2.70;;
36995;SDS011;22905;50.340;10.776;2023-12-28T18:53:11;11.23;;;4.30;;
36995;SDS011;22905;50.340;10.776;2023-12-28T18:58:12;14.60;;;5.70;;
36995;SDS011;22905;50.340;10.776;2023-12-28T19:03:12;8.30;;;3.45;;
36995;SDS011;22905;50.340;10.776;2023-12-28T19:08:12;10.65;;;6.97;;
36995;SDS011;22905;50.340;10.776;2023-12-28T19:13:13;6.00;;;3.65;;
36995;SDS011;22905;50.340;10.776;2023-12-28T19:18:14;12.32;;;5.25;;
36995;SDS011;22905;50.340;10.776;2023-12-28T19:23:16;12.38;;;4.55;;
36995;SDS011;22905;50.340;10.776;2023-12-28T19:28:16;5.85;;;4.03;;
36995;SDS011;22905;50.340;10.776;2023-12-28T19:33:17;10.05;;;5.57;;
36995;SDS011;22905;50.340;10.776;2023-12-28T19:38:17;8.90;;;4.80;;
36995;SDS011;22905;50.340;10.776;2023-12-28T19:43:17;9.60;;;5.20;;
36995;SDS011;22905;50.340;10.776;2023-12-28T19:48:18;11.60;;;7.40;;
36995;SDS011;22905;50.340;10.776;2023-12-28T19:53:20;10.27;;;4.65;;
36995;SDS011;22905;50.340;10.776;2023-12-28T19:58:21;10.20;;;4.38;;
36995;SDS011;22905;50.340;10.776;2023-12-28T20:03:22;7.15;;;4.85;;
36995;SDS011;22905;50.340;10.776;2023-12-28T20:08:22;10.90;;;5.13;;
36995;SDS011;22905;50.340;10.776;2023-12-28T20:13:22;14.15;;;4.95;;
36995;SDS011;22905;50.340;10.776;2023-12-28T20:18:23;7.72;;;4.63;;
36995;SDS011;22905;50.340;10.776;2023-12-28T20:23:23;11.05;;;5.20;;
36995;SDS011;22905;50.340;10.776;2023-12-28T20:28:24;12.97;;;4.63;;
36995;SDS011;22905;50.340;10.776;2023-12-28T20:33:26;7.05;;;4.40;;
36995;SDS011;22905;50.340;10.776;2023-12-28T20:38:26;10.60;;;6.78;;
36995;SDS011;22905;50.340;10.776;2023-12-28T20:43:27;9.57;;;4.93;;
36995;SDS011;22905;50.340;10.776;2023-12-28T20:48:28;7.57;;;5.77;;
36995;SDS011;22905;50.340;10.776;2023-12-28T20:53:28;7.93;;;4.65;;
36995;SDS011;22905;50.340;10.776;2023-12-28T20:58:31;14.80;;;5.80;;
36995;SDS011;22905;50.340;10.776;2023-12-28T21:03:31;12.90;;;5.35;;
36995;SDS011;22905;50.340;10.776;2023-12-28T21:08:32;9.93;;;5.70;;
36995;SDS011;22905;50.340;10.776;2023-12-28T21:13:32;8.25;;;5.18;;
36995;SDS011;22905;50.340;10.776;2023-12-28T21:18:38;8.77;;;5.50;;
36995;SDS011;22905;50.340;10.776;2023-12-28T21:23:39;9.35;;;4.88;;
36995;SDS011;22905;50.340;10.776;2023-12-28T21:28:39;7.13;;;5.15;;
36995;SDS011;22905;50.340;10.776;2023-12-28T21:33:40;9.93;;;5.90;;
36995;SDS011;22905;50.340;10.776;2023-12-28T21:38:42;11.00;;;5.20;;
36995;SDS011;22905;50.340;10.776;2023-12-28T21:43:42;10.75;;;5.57;;
36995;SDS011;22905;50.340;10.776;2023-12-28T21:48:43;13.70;;;6.07;;
36995;SDS011;22905;50.340;10.776;2023-12-28T21:53:43;8.82;;;6.28;;
36995;SDS011;22905;50.340;10.776;2023-12-28T21:58:43;13.98;;;6.28;;
36995;SDS011;22905;50.340;10.776;2023-12-28T22:03:44;9.85;;;6.53;;
36995;SDS011;22905;50.340;10.776;2023-12-28T22:08:44;12.23;;;6.32;;
36995;SDS011;22905;50.340;10.776;2023-12-28T22:13:44;10.90;;;6.73;;
36995;SDS011;22905;50.340;10.776;2023-12-28T22:18:45;10.57;;;7.07;;
36995;SDS011;22905;50.340;10.776;2023-12-28T22:23:45;14.88;;;8.38;;
36995;SDS011;22905;50.340;10.776;2023-12-28T22:28:46;12.00;;;8.43;;
36995;SDS011;22905;50.340;10.776;2023-12-28T22:33:46;11.18;;;6.65;;
36995;SDS011;22905;50.340;10.776;2023-12-28T22:38:47;6.85;;;4.93;;
36995;SDS011;22905;50.340;10.776;2023-12-28T22:43:47;7.45;;;5.25;;
36995;SDS011;22905;50.340;10.776;2023-12-28T22:48:48;6.00;;;4.80;;
36995;SDS011;22905;50.340;10.776;2023-12-28T22:53:48;7.40;;;4.57;;
36995;SDS011;22905;50.340;10.776;2023-12-28T22:58:48;5.22;;;3.88;;
36995;SDS011;22905;50.340;10.776;2023-12-28T23:03:49;6.63;;;3.40;;
36995;SDS011;22905;50.340;10.776;2023-12-28T23:08:49;5.32;;;2.92;;
36995;SDS011;22905;50.340;10.776;2023-12-28T23:13:50;3.22;;;2.50;;
36995;SDS011;22905;50.340;10.776;2023-12-28T23:18:51;3.90;;;3.00;;
36995;SDS011;22905;50.340;10.776;2023-12-28T23:23:51;4.95;;;3.25;;
36995;SDS011;22905;50.340;10.776;2023-12-28T23:28:52;4.07;;;3.10;;
36995;SDS011;22905;50.340;10.776;2023-12-28T23:33:52;6.07;;;3.20;;
36995;SDS011;22905;50.340;10.776;2023-12-28T23:38:52;3.70;;;2.95;;
36995;SDS011;22905;50.340;10.776;2023-12-28T23:43:53;4.07;;;2.92;;
36995;SDS011;22905;50.340;10.776;2023-12-28T23:48:53;2.65;;;2.42;;
36995;SDS011;22905;50.340;10.776;2023-12-28T23:53:53;2.88;;;2.53;;
36995;SDS011;22905;50.340;10.776;2023-12-28T23:58:54;3.57;;;1.90;;
